createdAt,value
2022-08-28T00:01:28.468Z,21.63
2022-08-28T00:03:56.677Z,21.55
2022-08-28T00:06:24.752Z,21.51
2022-08-28T00:08:57.032Z,21.44
2022-08-28T00:11:25.507Z,21.36
2022-08-28T00:13:56.673Z,21.28
2022-08-28T00:16:26.538Z,21.21
2022-08-28T00:18:57.450Z,21.07
2022-08-28T00:21:25.905Z,20.99
2022-08-28T00:23:56.029Z,20.83
2022-08-28T00:26:39.196Z,20.73
2022-08-28T00:29:08.792Z,20.63
2022-08-28T00:31:40.628Z,20.55
2022-08-28T00:34:12.533Z,20.52
2022-08-28T00:36:41.526Z,20.50
2022-08-28T00:39:14.125Z,20.41
2022-08-28T00:41:45.256Z,20.37
2022-08-28T00:44:15.790Z,20.29
2022-08-28T00:46:47.630Z,20.31
2022-08-28T00:49:18.405Z,20.32
2022-08-28T00:52:05.236Z,20.31
2022-08-28T00:54:38.528Z,20.27
2022-08-28T00:57:11.630Z,20.22
2022-08-28T00:59:40.037Z,20.14
2022-08-28T01:02:09.617Z,20.06
2022-08-28T01:04:38.404Z,20.00
2022-08-28T01:07:09.506Z,19.97
2022-08-28T01:09:44.440Z,19.93
2022-08-28T01:12:19.309Z,19.95
2022-08-28T01:14:51.388Z,19.93
2022-08-28T01:17:23.859Z,20.00
2022-08-28T01:19:58.495Z,20.02
2022-08-28T01:22:35.413Z,20.01
2022-08-28T01:25:08.747Z,20.04
2022-08-28T01:27:37.222Z,20.06
2022-08-28T01:30:05.897Z,20.04
2022-08-28T01:32:36.813Z,20.01
2022-08-28T01:35:06.339Z,19.96
2022-08-28T01:37:35.031Z,19.88
2022-08-28T01:40:05.276Z,19.87
2022-08-28T01:42:38.847Z,19.84
2022-08-28T01:45:11.221Z,19.83
2022-08-28T01:47:39.536Z,19.81
2022-08-28T01:50:10.305Z,19.82
2022-08-28T01:52:39.460Z,19.80
2022-08-28T01:55:11.349Z,19.80
2022-08-28T01:57:45.101Z,19.79
2022-08-28T02:00:16.258Z,19.78
2022-08-28T02:02:44.619Z,19.80
2022-08-28T02:05:13.166Z,19.82
2022-08-28T02:07:42.236Z,19.80
2022-08-28T02:10:12.421Z,19.80
2022-08-28T02:12:43.387Z,19.80
2022-08-28T02:15:14.302Z,19.82
2022-08-28T02:17:42.585Z,19.82
2022-08-28T02:20:12.729Z,19.79
2022-08-28T02:22:41.413Z,19.78
2022-08-28T02:25:12.439Z,19.72
2022-08-28T02:27:41.156Z,19.69
2022-08-28T02:30:13.203Z,19.69
2022-08-28T02:32:41.776Z,19.68
2022-08-28T02:35:16.711Z,19.67
2022-08-28T02:37:47.663Z,19.68
2022-08-28T02:40:23.747Z,19.71
2022-08-28T02:42:53.117Z,19.71
2022-08-28T02:45:25.255Z,19.77
2022-08-28T02:47:55.008Z,19.82
2022-08-28T02:50:25.496Z,19.84
2022-08-28T02:52:54.310Z,19.84
2022-08-28T02:55:24.761Z,19.85
2022-08-28T02:57:54.752Z,19.88
2022-08-28T03:00:25.825Z,19.87
2022-08-28T03:02:55.159Z,19.90
2022-08-28T03:05:27.395Z,19.89
2022-08-28T03:07:56.486Z,19.86
2022-08-28T03:10:28.436Z,19.80
2022-08-28T03:12:56.738Z,19.80
2022-08-28T03:15:26.616Z,19.86
2022-08-28T03:17:55.584Z,19.87
2022-08-28T03:20:24.411Z,19.90
2022-08-28T03:23:09.987Z,19.91
2022-08-28T03:25:40.246Z,19.93
2022-08-28T03:28:08.624Z,19.96
2022-08-28T03:30:37.004Z,19.97
2022-08-28T03:33:05.727Z,19.99
2022-08-28T03:35:34.724Z,20.00
2022-08-28T03:38:03.239Z,19.97
2022-08-28T03:40:32.436Z,19.97
2022-08-28T03:43:04.824Z,19.94
2022-08-28T03:45:35.603Z,19.96
2022-08-28T03:48:05.159Z,19.96
2022-08-28T03:50:33.323Z,19.99
2022-08-28T03:53:03.227Z,20.00
2022-08-28T03:55:34.183Z,20.00
2022-08-28T03:58:04.941Z,19.98
2022-08-28T04:00:34.835Z,20.00
2022-08-28T04:03:04.601Z,20.01
2022-08-28T04:05:35.369Z,20.01
2022-08-28T04:08:03.782Z,20.05
2022-08-28T04:10:33.256Z,20.05
2022-08-28T04:13:02.094Z,20.11
2022-08-28T04:15:32.183Z,20.13
2022-08-28T04:18:00.550Z,20.16
2022-08-28T04:20:29.830Z,20.18
2022-08-28T04:23:01.442Z,20.22
2022-08-28T04:25:30.622Z,20.29
2022-08-28T04:27:59.098Z,20.35
2022-08-28T04:30:27.240Z,20.44
2022-08-28T04:32:56.962Z,20.53
2022-08-28T04:35:26.054Z,20.62
2022-08-28T04:37:58.657Z,20.67
2022-08-28T04:40:27.351Z,20.76
2022-08-28T04:42:55.855Z,20.79
2022-08-28T04:45:24.379Z,20.85
2022-08-28T04:47:52.656Z,20.81
2022-08-28T04:50:22.475Z,20.86
2022-08-28T04:52:52.696Z,20.84
2022-08-28T04:55:33.823Z,20.86
2022-08-28T04:58:10.123Z,20.90
2022-08-28T05:00:39.733Z,20.89
2022-08-28T05:03:08.112Z,20.95
2022-08-28T05:05:44.725Z,20.95
2022-08-28T05:08:14.918Z,20.90
2022-08-28T05:10:44.346Z,20.98
2022-08-28T05:13:13.542Z,21.00
2022-08-28T05:15:42.716Z,21.02
2022-08-28T05:18:11.178Z,21.01
2022-08-28T05:20:44.191Z,21.02
2022-08-28T05:23:13.875Z,20.99
2022-08-28T05:25:44.708Z,20.96
2022-08-28T05:28:13.931Z,21.01
2022-08-28T05:30:44.055Z,21.00
2022-08-28T05:33:15.125Z,20.99
2022-08-28T05:35:46.936Z,21.05
2022-08-28T05:38:18.209Z,21.07
2022-08-28T05:40:50.308Z,21.05
2022-08-28T05:43:19.793Z,21.12
2022-08-28T05:45:57.907Z,21.13
2022-08-28T05:48:30.394Z,21.15
2022-08-28T05:51:08.037Z,21.21
2022-08-28T05:53:38.867Z,21.26
2022-08-28T05:56:09.242Z,21.29
2022-08-28T05:58:40.769Z,21.37
2022-08-28T06:01:11.985Z,21.39
2022-08-28T06:03:41.485Z,21.45
2022-08-28T06:06:13.283Z,21.53
2022-08-28T06:08:58.377Z,21.57
2022-08-28T06:11:31.197Z,21.65
2022-08-28T06:14:02.606Z,21.72
2022-08-28T06:16:33.175Z,21.79
2022-08-28T06:19:01.810Z,21.77
2022-08-28T06:21:36.319Z,21.82
2022-08-28T06:24:05.430Z,21.85
2022-08-28T06:26:34.071Z,21.83
2022-08-28T06:29:03.061Z,21.91
2022-08-28T06:31:34.039Z,21.98
2022-08-28T06:34:02.857Z,22.02
2022-08-28T06:36:35.196Z,22.07
2022-08-28T06:39:05.882Z,22.15
2022-08-28T06:41:35.675Z,22.22
2022-08-28T06:44:04.233Z,22.28
2022-08-28T06:46:33.407Z,22.38
2022-08-28T06:49:04.417Z,22.43
2022-08-28T06:51:35.685Z,22.55
2022-08-28T06:54:04.713Z,22.63
2022-08-28T06:56:33.348Z,22.73
2022-08-28T06:59:01.861Z,22.83
2022-08-28T07:01:33.536Z,22.85
2022-08-28T07:04:06.727Z,22.91
2022-08-28T07:06:44.142Z,23.03
2022-08-28T07:09:13.564Z,23.11
2022-08-28T07:11:45.698Z,23.17
2022-08-28T07:14:14.114Z,23.20
2022-08-28T07:16:45.103Z,23.30
2022-08-28T07:19:15.102Z,23.34
2022-08-28T07:21:46.716Z,23.40
2022-08-28T07:24:16.679Z,23.42
2022-08-28T07:26:47.146Z,23.53
2022-08-28T07:29:16.249Z,23.63
2022-08-28T07:31:47.701Z,23.69
2022-08-28T07:34:17.679Z,23.72
2022-08-28T07:36:48.306Z,23.79
2022-08-28T07:39:17.106Z,23.87
2022-08-28T07:41:46.191Z,23.99
2022-08-28T07:44:34.279Z,24.09
2022-08-28T07:47:06.807Z,24.13
2022-08-28T07:49:37.397Z,24.25
2022-08-28T07:52:09.416Z,24.31
2022-08-28T07:54:40.644Z,24.40
2022-08-28T07:57:11.080Z,24.57
2022-08-28T07:59:42.419Z,24.64
2022-08-28T08:02:11.630Z,24.77
2022-08-28T08:04:40.191Z,24.82
2022-08-28T08:07:09.999Z,24.95
2022-08-28T08:09:39.917Z,25.04
2022-08-28T08:12:10.393Z,25.13
2022-08-28T08:14:39.417Z,25.17
2022-08-28T08:17:08.141Z,25.27
2022-08-28T08:19:37.239Z,25.39
2022-08-28T08:22:07.895Z,25.52
2022-08-28T08:24:37.667Z,25.64
2022-08-28T08:27:07.089Z,25.70
2022-08-28T08:29:40.564Z,25.79
2022-08-28T08:32:11.569Z,25.86
2022-08-28T08:34:43.106Z,25.98
2022-08-28T08:37:11.886Z,26.05
2022-08-28T08:39:54.848Z,26.17
2022-08-28T08:42:27.612Z,26.23
2022-08-28T08:44:59.279Z,26.34
2022-08-28T08:47:37.001Z,26.44
2022-08-28T08:50:08.661Z,26.59
2022-08-28T08:52:41.811Z,26.74
2022-08-28T08:55:22.174Z,26.85
2022-08-28T08:57:57.154Z,27.04
2022-08-28T09:00:25.942Z,27.15
2022-08-28T09:03:02.711Z,27.30
2022-08-28T09:05:42.829Z,27.51
2022-08-28T09:08:21.574Z,27.71
2022-08-28T09:11:01.089Z,27.90
2022-08-28T09:13:41.719Z,28.07
2022-08-28T09:16:23.224Z,28.14
2022-08-28T09:18:52.390Z,28.19
2022-08-28T09:21:32.509Z,28.30
2022-08-28T09:24:11.831Z,28.42
2022-08-28T09:26:41.991Z,28.54
2022-08-28T09:29:18.642Z,28.64
2022-08-28T09:31:46.951Z,28.68
2022-08-28T09:34:23.748Z,28.73
2022-08-28T09:36:53.521Z,28.78
2022-08-28T09:39:25.027Z,28.79
2022-08-28T09:42:17.627Z,28.83
2022-08-28T09:45:02.672Z,28.86
2022-08-28T09:47:46.611Z,28.94
2022-08-28T09:50:35.285Z,28.92
2022-08-28T09:53:20.819Z,28.96
2022-08-28T09:55:58.453Z,28.97
2022-08-28T09:58:34.848Z,29.04
2022-08-28T10:01:11.810Z,29.07
2022-08-28T10:03:50.178Z,29.07
2022-08-28T10:06:26.937Z,29.11
2022-08-28T10:09:10.437Z,29.11
2022-08-28T10:11:46.313Z,29.14
2022-08-28T10:14:29.681Z,29.18
2022-08-28T10:17:08.023Z,29.28
2022-08-28T10:19:46.890Z,29.33
2022-08-28T10:22:30.866Z,29.41
2022-08-28T10:25:13.540Z,29.45
2022-08-28T10:27:55.534Z,29.51
2022-08-28T10:30:26.273Z,29.57
2022-08-28T10:33:24.082Z,29.56
2022-08-28T10:35:58.694Z,29.64
2022-08-28T10:38:40.069Z,29.79
2022-08-28T10:41:14.149Z,30.01
2022-08-28T10:43:48.005Z,30.20
2022-08-28T10:46:27.334Z,30.35
2022-08-28T10:49:01.253Z,30.53
2022-08-28T10:51:37.644Z,30.65
2022-08-28T10:54:20.629Z,30.69
2022-08-28T10:56:56.303Z,30.73
2022-08-28T10:59:26.922Z,30.73
2022-08-28T11:02:02.754Z,30.76
2022-08-28T11:04:36.007Z,30.79
2022-08-28T11:07:10.798Z,30.87
2022-08-28T11:10:03.289Z,30.91
2022-08-28T11:15:51.092Z,31.01
2022-08-28T11:19:06.540Z,31.00
2022-08-28T11:21:42.773Z,31.09
2022-08-28T11:24:26.257Z,31.16
2022-08-28T11:27:08.003Z,31.20
2022-08-28T11:29:58.764Z,31.26
2022-08-28T11:32:57.444Z,31.24
2022-08-28T11:35:50.792Z,31.28
2022-08-28T11:38:57.987Z,31.35
2022-08-28T11:41:30.779Z,31.57
2022-08-28T11:45:09.860Z,31.67
2022-08-28T11:48:16.124Z,31.80
2022-08-28T11:51:30.393Z,31.99
2022-08-28T11:54:13.621Z,32.05
2022-08-28T11:56:54.577Z,32.03
2022-08-28T12:00:01.024Z,32.09
2022-08-28T12:02:51.339Z,32.11
2022-08-28T12:05:45.435Z,32.15
2022-08-28T12:08:15.412Z,32.09
2022-08-28T12:10:59.177Z,32.18
2022-08-28T12:13:50.061Z,32.28
2022-08-28T12:16:32.558Z,32.15
2022-08-28T12:19:04.355Z,32.11
2022-08-28T12:21:41.736Z,32.22
2022-08-28T12:24:23.125Z,32.39
2022-08-28T12:26:57.023Z,32.55
2022-08-28T12:29:34.252Z,32.76
2022-08-28T12:32:30.657Z,32.89
2022-08-28T12:35:16.944Z,32.92
2022-08-28T12:37:52.131Z,32.92
2022-08-28T12:40:25.048Z,32.95
2022-08-28T12:42:58.652Z,32.95
2022-08-28T12:45:34.909Z,32.99
2022-08-28T12:48:11.281Z,33.00
2022-08-28T12:50:41.533Z,32.96
2022-08-28T12:53:16.666Z,33.01
2022-08-28T12:55:46.976Z,33.08
2022-08-28T12:58:16.323Z,33.13
2022-08-28T13:00:57.121Z,33.12
2022-08-28T13:03:26.132Z,33.17
2022-08-28T13:06:05.219Z,33.08
2022-08-28T13:08:35.809Z,33.00
2022-08-28T13:11:05.286Z,32.93
2022-08-28T13:13:38.716Z,32.83
2022-08-28T13:16:37.939Z,32.67
2022-08-28T13:19:35.686Z,32.61
2022-08-28T13:25:55.629Z,32.71
2022-08-28T13:28:24.794Z,32.74
2022-08-28T13:31:00.540Z,32.64
2022-08-28T13:33:36.163Z,32.61
2022-08-28T13:36:25.676Z,32.54
2022-08-28T13:39:36.060Z,32.53
2022-08-28T13:42:09.969Z,32.58
2022-08-28T13:44:48.822Z,32.61
2022-08-28T13:47:22.403Z,32.57
2022-08-28T13:49:53.465Z,32.49
2022-08-28T13:52:21.711Z,32.50
2022-08-28T13:54:51.426Z,32.46
2022-08-28T13:57:19.950Z,32.46
2022-08-28T13:59:52.373Z,32.44
2022-08-28T14:02:42.979Z,32.34
2022-08-28T14:05:14.098Z,32.15
2022-08-28T14:07:52.460Z,32.04
2022-08-28T14:10:21.918Z,32.03
2022-08-28T14:12:56.922Z,32.02
2022-08-28T14:15:25.969Z,32.02
2022-08-28T14:17:55.805Z,32.07
2022-08-28T14:20:42.655Z,32.05
2022-08-28T14:23:11.858Z,32.03
2022-08-28T14:25:44.168Z,32.04
2022-08-28T14:28:15.173Z,32.03
2022-08-28T14:30:48.333Z,32.04
2022-08-28T14:33:18.976Z,32.03
2022-08-28T14:35:54.219Z,32.01
2022-08-28T14:38:24.050Z,32.02
2022-08-28T14:40:55.120Z,31.96
2022-08-28T14:43:26.376Z,31.87
2022-08-28T14:45:56.331Z,31.62
2022-08-28T14:48:25.500Z,31.56
2022-08-28T14:50:57.366Z,31.39
2022-08-28T14:53:26.437Z,31.20
2022-08-28T14:55:55.575Z,31.07
2022-08-28T14:58:24.224Z,31.09
2022-08-28T15:00:53.427Z,31.07
2022-08-28T15:03:21.890Z,31.05
2022-08-28T15:06:02.787Z,30.96
2022-08-28T15:08:35.464Z,30.91
2022-08-28T15:11:07.952Z,30.87
2022-08-28T15:13:37.653Z,30.85
2022-08-28T15:16:15.710Z,30.80
2022-08-28T15:18:46.266Z,30.73
2022-08-28T15:21:22.772Z,30.71
2022-08-28T15:23:52.026Z,30.76
2022-08-28T15:26:21.995Z,30.75
2022-08-28T15:28:55.980Z,30.65
2022-08-28T15:31:26.508Z,30.63
2022-08-28T15:33:55.479Z,30.48
2022-08-28T15:36:25.361Z,30.34
2022-08-28T15:39:11.084Z,30.19
2022-08-28T15:41:39.615Z,30.12
2022-08-28T15:44:10.965Z,30.11
2022-08-28T15:46:50.361Z,30.11
2022-08-28T15:49:20.200Z,30.22
2022-08-28T15:52:00.721Z,30.42
2022-08-28T15:54:30.072Z,30.61
2022-08-28T15:57:07.861Z,30.78
2022-08-28T15:59:49.161Z,30.99
2022-08-28T16:02:22.861Z,31.17
2022-08-28T16:04:59.785Z,31.31
2022-08-28T16:07:29.955Z,31.36
2022-08-28T16:09:58.518Z,31.47
2022-08-28T16:12:32.283Z,31.55
2022-08-28T16:15:00.906Z,31.68
2022-08-28T16:17:32.646Z,31.71
2022-08-28T16:20:01.540Z,31.65
2022-08-28T16:22:32.925Z,31.61
2022-08-28T16:25:02.609Z,31.74
2022-08-28T16:27:42.861Z,32.03
2022-08-28T16:30:16.139Z,32.42
2022-08-28T16:32:46.824Z,32.57
2022-08-28T16:35:16.408Z,32.66
2022-08-28T16:37:46.255Z,32.84
2022-08-28T16:40:15.239Z,32.75
2022-08-28T16:42:51.331Z,32.69
2022-08-28T16:45:22.144Z,32.75
2022-08-28T16:47:53.549Z,33.01
2022-08-28T16:50:21.989Z,33.46
2022-08-28T16:52:54.094Z,33.99
2022-08-28T16:55:23.814Z,34.36
2022-08-28T17:00:44.368Z,34.59
2022-08-28T17:03:26.536Z,34.47
2022-08-28T17:05:58.172Z,34.33
2022-08-28T17:08:28.025Z,34.35
2022-08-28T17:10:57.352Z,34.39
2022-08-28T17:13:40.963Z,34.17
2022-08-28T17:16:23.996Z,33.95
2022-08-28T17:19:04.942Z,33.65
2022-08-28T17:21:52.879Z,33.37
2022-08-28T17:24:25.004Z,33.01
2022-08-28T17:26:56.034Z,32.75
2022-08-28T17:29:29.979Z,32.51
2022-08-28T17:32:00.946Z,32.28
2022-08-28T17:34:30.584Z,32.03
2022-08-28T17:37:06.179Z,31.82
2022-08-28T17:39:42.310Z,31.61
2022-08-28T17:42:15.119Z,31.35
2022-08-28T17:44:47.410Z,31.13
2022-08-28T17:47:35.767Z,30.81
2022-08-28T17:50:07.361Z,30.64
2022-08-28T17:52:36.185Z,30.49
2022-08-28T17:55:07.633Z,30.27
2022-08-28T17:57:36.175Z,30.14
2022-08-28T18:00:06.740Z,29.96
2022-08-28T18:02:35.511Z,29.77
2022-08-28T18:05:06.067Z,29.66
2022-08-28T18:07:34.945Z,29.41
2022-08-28T18:10:09.985Z,29.21
2022-08-28T18:12:40.171Z,28.96
2022-08-28T18:15:13.842Z,28.81
2022-08-28T18:17:48.193Z,28.70
2022-08-28T18:20:16.659Z,28.51
2022-08-28T18:22:46.313Z,28.42
2022-08-28T18:25:30.364Z,28.33
2022-08-28T18:27:58.977Z,28.17
2022-08-28T18:30:28.011Z,28.05
2022-08-28T18:32:58.552Z,28.01
2022-08-28T18:35:31.021Z,27.79
2022-08-28T18:38:03.559Z,27.73
2022-08-28T18:40:35.141Z,27.62
2022-08-28T18:43:05.830Z,27.49
2022-08-28T18:45:34.602Z,27.36
2022-08-28T18:48:03.524Z,27.28
2022-08-28T18:50:32.788Z,27.21
2022-08-28T18:53:01.998Z,27.05
2022-08-28T18:55:33.439Z,26.98
2022-08-28T18:58:02.659Z,26.87
2022-08-28T19:00:36.501Z,26.76
2022-08-28T19:03:07.786Z,26.65
2022-08-28T19:05:40.396Z,26.56
2022-08-28T19:08:12.343Z,26.42
2022-08-28T19:10:42.830Z,26.25
2022-08-28T19:13:15.041Z,26.10
2022-08-28T19:15:44.030Z,26.00
2022-08-28T19:18:15.609Z,25.85
2022-08-28T19:20:44.261Z,25.73
2022-08-28T19:23:17.357Z,25.62
2022-08-28T19:25:49.288Z,25.47
2022-08-28T19:28:17.529Z,25.38
2022-08-28T19:30:47.414Z,25.32
2022-08-28T19:33:19.182Z,25.20
2022-08-28T19:35:49.532Z,25.08
2022-08-28T19:38:20.185Z,24.96
2022-08-28T19:40:52.476Z,24.81
2022-08-28T19:43:23.680Z,24.62
2022-08-28T19:46:00.531Z,24.47
2022-08-28T19:48:32.070Z,24.29
2022-08-28T19:51:04.674Z,24.15
2022-08-28T19:53:34.289Z,24.02
2022-08-28T19:56:04.396Z,23.92
2022-08-28T19:58:34.277Z,23.86
2022-08-28T20:01:02.810Z,23.73
2022-08-28T20:03:31.676Z,23.60
2022-08-28T20:06:03.971Z,23.45
2022-08-28T20:08:34.285Z,23.42
2022-08-28T20:11:04.150Z,23.34
2022-08-28T20:13:33.239Z,23.23
2022-08-28T20:16:05.608Z,23.21
2022-08-28T20:18:34.622Z,23.20
2022-08-28T20:21:02.792Z,23.19
2022-08-28T20:23:33.772Z,23.13
2022-08-28T20:26:05.066Z,23.11
2022-08-28T20:28:33.787Z,23.10
2022-08-28T20:31:02.172Z,23.07
2022-08-28T20:33:34.966Z,23.03
2022-08-28T20:36:04.643Z,22.99
2022-08-28T20:38:35.553Z,22.95
2022-08-28T20:41:09.091Z,22.90
2022-08-28T20:43:40.830Z,22.90
2022-08-28T20:46:15.770Z,22.87
2022-08-28T20:48:47.673Z,22.85
2022-08-28T20:51:15.912Z,22.87
2022-08-28T20:53:45.593Z,22.85
2022-08-28T20:56:15.672Z,22.85
2022-08-28T20:58:43.923Z,22.81
2022-08-28T21:01:14.394Z,22.81
2022-08-28T21:03:45.785Z,22.80
2022-08-28T21:06:14.265Z,22.80
2022-08-28T21:08:42.613Z,22.79
2022-08-28T21:11:11.458Z,22.79
2022-08-28T21:13:51.282Z,22.74
2022-08-28T21:16:20.133Z,22.79
2022-08-28T21:19:14.089Z,22.79
2022-08-28T21:21:37.811Z,22.77
2022-08-28T21:24:08.438Z,22.74
2022-08-28T21:26:38.389Z,22.73
2022-08-28T21:29:08.487Z,22.76
2022-08-28T21:31:36.686Z,22.73
2022-08-28T21:34:06.657Z,22.72
2022-08-28T21:36:34.878Z,22.71
2022-08-28T21:39:03.538Z,22.73
2022-08-28T21:41:31.764Z,22.75
2022-08-28T21:44:00.229Z,22.75
2022-08-28T21:46:30.400Z,22.79
2022-08-28T21:48:58.889Z,22.77
2022-08-28T21:51:27.830Z,22.77
2022-08-28T21:53:56.200Z,22.71
2022-08-28T21:56:26.804Z,22.70
2022-08-28T21:59:01.316Z,22.65
2022-08-28T22:01:31.727Z,22.61
2022-08-28T22:04:03.608Z,22.59
2022-08-28T22:06:32.620Z,22.54
2022-08-28T22:09:01.264Z,22.50
2022-08-28T22:11:33.093Z,22.44
2022-08-28T22:14:01.961Z,22.41
2022-08-28T22:16:31.756Z,22.40
2022-08-28T22:19:00.028Z,22.34
2022-08-28T22:21:46.586Z,22.29
2022-08-28T22:24:14.938Z,22.24
2022-08-28T22:26:44.360Z,22.24
2022-08-28T22:29:13.263Z,22.23
2022-08-28T22:31:46.156Z,22.24
2022-08-28T22:34:15.331Z,22.22
2022-08-28T22:36:43.743Z,22.21
2022-08-28T22:39:12.036Z,22.15
2022-08-28T22:41:40.475Z,22.10
2022-08-28T22:44:08.814Z,22.09
2022-08-28T22:46:37.094Z,22.06
2022-08-28T22:49:06.857Z,22.01
2022-08-28T22:51:35.946Z,22.00
2022-08-28T22:54:04.391Z,21.97
2022-08-28T22:56:32.583Z,22.00
2022-08-28T22:59:00.878Z,21.97
2022-08-28T23:01:30.132Z,21.95
2022-08-28T23:04:01.564Z,21.92
2022-08-28T23:06:33.798Z,21.93
2022-08-28T23:09:05.414Z,21.96
2022-08-28T23:11:34.855Z,21.94
2022-08-28T23:14:03.369Z,21.93
2022-08-28T23:16:31.886Z,21.91
2022-08-28T23:19:09.581Z,21.83
2022-08-28T23:21:44.631Z,21.76
2022-08-28T23:24:13.857Z,21.72
2022-08-28T23:26:42.199Z,21.68
2022-08-28T23:29:11.070Z,21.68
2022-08-28T23:31:40.431Z,21.71
2022-08-28T23:34:09.267Z,21.69
2022-08-28T23:36:43.604Z,21.74
2022-08-28T23:39:13.969Z,21.70
2022-08-28T23:41:42.860Z,21.69
2022-08-28T23:44:11.249Z,21.66
2022-08-28T23:46:41.692Z,21.62
2022-08-28T23:49:11.138Z,21.62
2022-08-28T23:51:42.348Z,21.55
2022-08-28T23:54:13.295Z,21.61
2022-08-28T23:56:42.169Z,21.62
2022-08-28T23:59:12.105Z,21.62
